sensor_id;sensor_type;location;lat;lon;timestamp;temperature;humidity
45207;DHT22;30950;53.086;21.576;2023-09-07T00:01:45;16.30;99.90
45207;DHT22;30950;53.086;21.576;2023-09-07T00:04:13;16.20;99.90
45207;DHT22;30950;53.086;21.576;2023-09-07T00:06:41;16.20;99.90
45207;DHT22;30950;53.086;21.576;2023-09-07T00:09:11;16.20;99.90
45207;DHT22;30950;53.086;21.576;2023-09-07T00:11:39;16.20;99.90
45207;DHT22;30950;53.086;21.576;2023-09-07T00:14:06;16.20;99.90
45207;DHT22;30950;53.086;21.576;2023-09-07T00:16:34;16.20;99.90
45207;DHT22;30950;53.086;21.576;2023-09-07T00:19:03;16.20;99.90
45207;DHT22;30950;53.086;21.576;2023-09-07T00:21:30;16.20;99.90
45207;DHT22;30950;53.086;21.576;2023-09-07T00:23:58;16.10;99.90
45207;DHT22;30950;53.086;21.576;2023-09-07T00:26:25;16.10;99.90
45207;DHT22;30950;53.086;21.576;2023-09-07T00:28:53;16.10;99.90
45207;DHT22;30950;53.086;21.576;2023-09-07T00:31:20;16.10;99.90
45207;DHT22;30950;53.086;21.576;2023-09-07T00:33:48;16.10;99.90
45207;DHT22;30950;53.086;21.576;2023-09-07T00:36:15;16.00;99.90
45207;DHT22;30950;53.086;21.576;2023-09-07T00:38:43;16.00;99.90
45207;DHT22;30950;53.086;21.576;2023-09-07T00:41:12;16.00;99.90
45207;DHT22;30950;53.086;21.576;2023-09-07T00:43:39;16.00;99.90
45207;DHT22;30950;53.086;21.576;2023-09-07T00:46:08;16.00;99.90
45207;DHT22;30950;53.086;21.576;2023-09-07T00:48:36;15.90;99.90
45207;DHT22;30950;53.086;21.576;2023-09-07T00:51:03;15.90;99.90
45207;DHT22;30950;53.086;21.576;2023-09-07T00:53:31;15.90;99.90
45207;DHT22;30950;53.086;21.576;2023-09-07T00:55:59;15.90;99.90
45207;DHT22;30950;53.086;21.576;2023-09-07T00:58:27;15.90;99.90
45207;DHT22;30950;53.086;21.576;2023-09-07T01:00:55;15.80;99.90
45207;DHT22;30950;53.086;21.576;2023-09-07T01:03:23;15.80;99.90
45207;DHT22;30950;53.086;21.576;2023-09-07T01:06:12;15.80;99.90
45207;DHT22;30950;53.086;21.576;2023-09-07T01:08:46;15.80;99.90
45207;DHT22;30950;53.086;21.576;2023-09-07T01:11:14;15.80;99.90
45207;DHT22;30950;53.086;21.576;2023-09-07T01:13:42;15.80;99.90
45207;DHT22;30950;53.086;21.576;2023-09-07T01:16:11;15.80;99.90
45207;DHT22;30950;53.086;21.576;2023-09-07T01:18:40;15.80;99.90
45207;DHT22;30950;53.086;21.576;2023-09-07T01:21:12;15.80;99.90
45207;DHT22;30950;53.086;21.576;2023-09-07T01:23:42;15.70;99.90
45207;DHT22;30950;53.086;21.576;2023-09-07T01:26:10;15.80;99.90
45207;DHT22;30950;53.086;21.576;2023-09-07T01:28:38;15.70;99.90
45207;DHT22;30950;53.086;21.576;2023-09-07T01:31:05;15.80;99.90
45207;DHT22;30950;53.086;21.576;2023-09-07T01:33:34;15.80;99.90
45207;DHT22;30950;53.086;21.576;2023-09-07T01:36:01;15.70;99.90
45207;DHT22;30950;53.086;21.576;2023-09-07T01:38:29;15.80;99.90
45207;DHT22;30950;53.086;21.576;2023-09-07T01:40:57;15.70;99.90
45207;DHT22;30950;53.086;21.576;2023-09-07T01:43:25;15.70;99.90
45207;DHT22;30950;53.086;21.576;2023-09-07T01:45:52;15.70;99.90
45207;DHT22;30950;53.086;21.576;2023-09-07T01:48:19;15.70;99.90
45207;DHT22;30950;53.086;21.576;2023-09-07T01:50:47;15.70;99.90
45207;DHT22;30950;53.086;21.576;2023-09-07T01:53:19;15.70;99.90
45207;DHT22;30950;53.086;21.576;2023-09-07T01:55:47;15.70;99.90
45207;DHT22;30950;53.086;21.576;2023-09-07T01:58:15;15.70;99.90
45207;DHT22;30950;53.086;21.576;2023-09-07T02:00:42;15.60;99.90
45207;DHT22;30950;53.086;21.576;2023-09-07T02:03:10;15.60;99.90
45207;DHT22;30950;53.086;21.576;2023-09-07T02:05:38;15.60;99.90
45207;DHT22;30950;53.086;21.576;2023-09-07T02:08:06;15.60;99.90
45207;DHT22;30950;53.086;21.576;2023-09-07T02:10:34;15.50;99.90
45207;DHT22;30950;53.086;21.576;2023-09-07T02:13:01;15.50;99.90
45207;DHT22;30950;53.086;21.576;2023-09-07T02:15:30;15.50;99.90
45207;DHT22;30950;53.086;21.576;2023-09-07T02:17:57;15.50;99.90
45207;DHT22;30950;53.086;21.576;2023-09-07T02:20:25;15.50;99.90
45207;DHT22;30950;53.086;21.576;2023-09-07T02:22:52;15.40;99.90
45207;DHT22;30950;53.086;21.576;2023-09-07T02:25:19;15.40;99.90
45207;DHT22;30950;53.086;21.576;2023-09-07T02:27:47;15.40;99.90
45207;DHT22;30950;53.086;21.576;2023-09-07T02:30:14;15.40;99.90
45207;DHT22;30950;53.086;21.576;2023-09-07T02:32:43;15.40;99.90
45207;DHT22;30950;53.086;21.576;2023-09-07T02:35:10;15.40;99.90
45207;DHT22;30950;53.086;21.576;2023-09-07T02:37:39;15.40;99.90
45207;DHT22;30950;53.086;21.576;2023-09-07T02:40:07;15.40;99.90
45207;DHT22;30950;53.086;21.576;2023-09-07T02:42:37;15.40;99.90
45207;DHT22;30950;53.086;21.576;2023-09-07T02:45:05;15.40;99.90
45207;DHT22;30950;53.086;21.576;2023-09-07T02:47:33;15.40;99.90
45207;DHT22;30950;53.086;21.576;2023-09-07T02:50:00;15.30;99.90
45207;DHT22;30950;53.086;21.576;2023-09-07T02:52:28;15.40;99.90
45207;DHT22;30950;53.086;21.576;2023-09-07T02:54:55;15.30;99.90
45207;DHT22;30950;53.086;21.576;2023-09-07T02:57:24;15.30;99.90
45207;DHT22;30950;53.086;21.576;2023-09-07T02:59:52;15.30;99.90
45207;DHT22;30950;53.086;21.576;2023-09-07T03:02:20;15.30;99.90
45207;DHT22;30950;53.086;21.576;2023-09-07T03:04:53;15.30;99.90
45207;DHT22;30950;53.086;21.576;2023-09-07T03:07:22;15.20;99.90
45207;DHT22;30950;53.086;21.576;2023-09-07T03:09:52;15.20;99.90
45207;DHT22;30950;53.086;21.576;2023-09-07T03:12:20;15.30;99.90
45207;DHT22;30950;53.086;21.576;2023-09-07T03:14:48;15.20;99.90
45207;DHT22;30950;53.086;21.576;2023-09-07T03:17:17;15.20;99.90
45207;DHT22;30950;53.086;21.576;2023-09-07T03:19:45;15.20;99.90
45207;DHT22;30950;53.086;21.576;2023-09-07T03:22:13;15.10;99.90
45207;DHT22;30950;53.086;21.576;2023-09-07T03:24:41;15.20;99.90
45207;DHT22;30950;53.086;21.576;2023-09-07T03:27:08;15.10;99.90
45207;DHT22;30950;53.086;21.576;2023-09-07T03:29:38;15.10;99.90
45207;DHT22;30950;53.086;21.576;2023-09-07T03:32:06;15.10;99.90
45207;DHT22;30950;53.086;21.576;2023-09-07T03:34:34;15.10;99.90
45207;DHT22;30950;53.086;21.576;2023-09-07T03:37:02;15.10;99.90
45207;DHT22;30950;53.086;21.576;2023-09-07T03:39:29;15.00;99.90
45207;DHT22;30950;53.086;21.576;2023-09-07T03:41:57;15.00;99.90
45207;DHT22;30950;53.086;21.576;2023-09-07T03:44:25;15.00;99.90
45207;DHT22;30950;53.086;21.576;2023-09-07T03:46:52;15.00;99.90
45207;DHT22;30950;53.086;21.576;2023-09-07T03:49:20;15.00;99.90
45207;DHT22;30950;53.086;21.576;2023-09-07T03:51:47;15.00;99.90
45207;DHT22;30950;53.086;21.576;2023-09-07T03:54:15;15.00;99.90
45207;DHT22;30950;53.086;21.576;2023-09-07T03:56:42;15.00;99.90
45207;DHT22;30950;53.086;21.576;2023-09-07T03:59:10;15.00;99.90
45207;DHT22;30950;53.086;21.576;2023-09-07T04:01:38;15.00;99.90
45207;DHT22;30950;53.086;21.576;2023-09-07T04:04:06;15.00;99.90
45207;DHT22;30950;53.086;21.576;2023-09-07T04:06:33;15.00;99.90
45207;DHT22;30950;53.086;21.576;2023-09-07T04:09:01;15.00;99.90
45207;DHT22;30950;53.086;21.576;2023-09-07T04:11:28;15.00;99.90
45207;DHT22;30950;53.086;21.576;2023-09-07T04:13:56;15.00;99.90
45207;DHT22;30950;53.086;21.576;2023-09-07T04:16:23;15.00;99.90
45207;DHT22;30950;53.086;21.576;2023-09-07T04:18:51;15.10;99.90
45207;DHT22;30950;53.086;21.576;2023-09-07T04:21:19;15.10;99.90
45207;DHT22;30950;53.086;21.576;2023-09-07T04:23:46;15.10;99.90
45207;DHT22;30950;53.086;21.576;2023-09-07T04:26:14;15.10;99.90
45207;DHT22;30950;53.086;21.576;2023-09-07T04:28:41;15.10;99.90
45207;DHT22;30950;53.086;21.576;2023-09-07T04:31:09;15.10;99.90
45207;DHT22;30950;53.086;21.576;2023-09-07T04:33:38;15.20;99.90
45207;DHT22;30950;53.086;21.576;2023-09-07T04:36:10;15.20;99.90
45207;DHT22;30950;53.086;21.576;2023-09-07T04:38:39;15.20;99.90
45207;DHT22;30950;53.086;21.576;2023-09-07T04:41:11;15.20;99.90
45207;DHT22;30950;53.086;21.576;2023-09-07T04:43:41;15.20;99.90
45207;DHT22;30950;53.086;21.576;2023-09-07T04:46:14;15.20;99.90
45207;DHT22;30950;53.086;21.576;2023-09-07T04:48:42;15.30;99.90
45207;DHT22;30950;53.086;21.576;2023-09-07T04:51:10;15.30;99.90
45207;DHT22;30950;53.086;21.576;2023-09-07T04:53:40;15.30;99.90
45207;DHT22;30950;53.086;21.576;2023-09-07T04:56:08;15.30;99.90
45207;DHT22;30950;53.086;21.576;2023-09-07T04:58:37;15.30;99.90
45207;DHT22;30950;53.086;21.576;2023-09-07T05:01:06;15.30;99.90
45207;DHT22;30950;53.086;21.576;2023-09-07T05:03:34;15.30;99.90
45207;DHT22;30950;53.086;21.576;2023-09-07T05:06:03;15.40;99.90
45207;DHT22;30950;53.086;21.576;2023-09-07T05:08:31;15.50;99.90
45207;DHT22;30950;53.086;21.576;2023-09-07T05:11:01;15.50;99.90
45207;DHT22;30950;53.086;21.576;2023-09-07T05:13:31;15.50;99.90
45207;DHT22;30950;53.086;21.576;2023-09-07T05:16:00;15.50;99.90
45207;DHT22;30950;53.086;21.576;2023-09-07T05:18:28;15.60;99.90
45207;DHT22;30950;53.086;21.576;2023-09-07T05:20:57;15.60;99.90
45207;DHT22;30950;53.086;21.576;2023-09-07T05:23:26;15.70;99.90
45207;DHT22;30950;53.086;21.576;2023-09-07T05:25:55;15.70;99.90
45207;DHT22;30950;53.086;21.576;2023-09-07T05:28:25;15.70;99.90
45207;DHT22;30950;53.086;21.576;2023-09-07T05:30:55;15.80;99.90
45207;DHT22;30950;53.086;21.576;2023-09-07T05:33:24;15.90;99.90
45207;DHT22;30950;53.086;21.576;2023-09-07T05:35:52;15.90;99.90
45207;DHT22;30950;53.086;21.576;2023-09-07T05:38:20;16.00;99.90
45207;DHT22;30950;53.086;21.576;2023-09-07T05:40:48;16.10;99.90
45207;DHT22;30950;53.086;21.576;2023-09-07T05:43:18;16.20;99.90
45207;DHT22;30950;53.086;21.576;2023-09-07T05:45:46;16.30;99.90
45207;DHT22;30950;53.086;21.576;2023-09-07T05:48:13;16.40;99.90
45207;DHT22;30950;53.086;21.576;2023-09-07T05:50:45;16.40;99.90
45207;DHT22;30950;53.086;21.576;2023-09-07T05:53:12;16.50;99.90
45207;DHT22;30950;53.086;21.576;2023-09-07T05:55:40;16.60;99.90
45207;DHT22;30950;53.086;21.576;2023-09-07T05:58:12;16.60;99.90
45207;DHT22;30950;53.086;21.576;2023-09-07T06:00:43;16.70;99.90
45207;DHT22;30950;53.086;21.576;2023-09-07T06:03:11;16.80;99.90
45207;DHT22;30950;53.086;21.576;2023-09-07T06:05:40;16.80;99.90
45207;DHT22;30950;53.086;21.576;2023-09-07T06:08:09;16.90;99.90
45207;DHT22;30950;53.086;21.576;2023-09-07T06:10:37;17.00;99.90
45207;DHT22;30950;53.086;21.576;2023-09-07T06:13:06;17.10;99.90
45207;DHT22;30950;53.086;21.576;2023-09-07T06:15:34;17.20;99.90
45207;DHT22;30950;53.086;21.576;2023-09-07T06:18:01;17.30;99.90
45207;DHT22;30950;53.086;21.576;2023-09-07T06:20:29;17.40;99.90
45207;DHT22;30950;53.086;21.576;2023-09-07T06:22:58;17.50;99.90
45207;DHT22;30950;53.086;21.576;2023-09-07T06:25:26;17.60;99.90
45207;DHT22;30950;53.086;21.576;2023-09-07T06:27:55;17.70;99.90
45207;DHT22;30950;53.086;21.576;2023-09-07T06:30:23;17.80;99.90
45207;DHT22;30950;53.086;21.576;2023-09-07T06:32:51;17.90;99.90
45207;DHT22;30950;53.086;21.576;2023-09-07T06:35:20;17.90;99.90
45207;DHT22;30950;53.086;21.576;2023-09-07T06:37:48;18.00;99.90
45207;DHT22;30950;53.086;21.576;2023-09-07T06:40:19;18.10;99.90
45207;DHT22;30950;53.086;21.576;2023-09-07T06:42:51;18.10;99.90
45207;DHT22;30950;53.086;21.576;2023-09-07T06:45:21;18.20;99.90
45207;DHT22;30950;53.086;21.576;2023-09-07T06:47:50;18.30;99.90
45207;DHT22;30950;53.086;21.576;2023-09-07T06:50:21;18.40;99.90
45207;DHT22;30950;53.086;21.576;2023-09-07T06:52:49;18.40;99.90
45207;DHT22;30950;53.086;21.576;2023-09-07T06:55:17;18.50;99.90
45207;DHT22;30950;53.086;21.576;2023-09-07T06:57:45;18.60;99.90
45207;DHT22;30950;53.086;21.576;2023-09-07T07:00:13;18.70;99.90
45207;DHT22;30950;53.086;21.576;2023-09-07T07:02:41;18.80;99.90
45207;DHT22;30950;53.086;21.576;2023-09-07T07:05:10;18.80;99.90
45207;DHT22;30950;53.086;21.576;2023-09-07T07:07:39;18.90;99.90
45207;DHT22;30950;53.086;21.576;2023-09-07T07:10:07;19.00;99.90
45207;DHT22;30950;53.086;21.576;2023-09-07T07:12:39;19.10;99.90
45207;DHT22;30950;53.086;21.576;2023-09-07T07:15:07;19.10;99.90
45207;DHT22;30950;53.086;21.576;2023-09-07T07:17:37;19.20;99.90
45207;DHT22;30950;53.086;21.576;2023-09-07T07:20:06;19.20;99.90
45207;DHT22;30950;53.086;21.576;2023-09-07T07:22:34;19.30;99.90
45207;DHT22;30950;53.086;21.576;2023-09-07T07:25:04;19.40;99.90
45207;DHT22;30950;53.086;21.576;2023-09-07T07:27:33;19.40;99.90
45207;DHT22;30950;53.086;21.576;2023-09-07T07:30:02;19.50;99.90
45207;DHT22;30950;53.086;21.576;2023-09-07T07:32:30;19.60;99.90
45207;DHT22;30950;53.086;21.576;2023-09-07T07:34:58;19.60;99.90
45207;DHT22;30950;53.086;21.576;2023-09-07T07:37:26;19.70;99.90
45207;DHT22;30950;53.086;21.576;2023-09-07T07:39:53;19.70;99.90
45207;DHT22;30950;53.086;21.576;2023-09-07T07:42:21;19.80;99.90
45207;DHT22;30950;53.086;21.576;2023-09-07T07:44:49;19.80;99.90
45207;DHT22;30950;53.086;21.576;2023-09-07T07:47:16;19.90;99.90
45207;DHT22;30950;53.086;21.576;2023-09-07T07:49:44;20.00;99.90
45207;DHT22;30950;53.086;21.576;2023-09-07T07:52:12;20.10;99.90
45207;DHT22;30950;53.086;21.576;2023-09-07T07:54:40;20.10;99.90
45207;DHT22;30950;53.086;21.576;2023-09-07T07:57:08;20.20;99.90
45207;DHT22;30950;53.086;21.576;2023-09-07T07:59:35;20.30;99.90
45207;DHT22;30950;53.086;21.576;2023-09-07T08:02:03;20.40;99.90
45207;DHT22;30950;53.086;21.576;2023-09-07T08:04:33;20.50;99.90
45207;DHT22;30950;53.086;21.576;2023-09-07T08:07:03;20.50;99.90
45207;DHT22;30950;53.086;21.576;2023-09-07T08:09:37;20.60;99.90
45207;DHT22;30950;53.086;21.576;2023-09-07T08:12:05;20.70;99.90
45207;DHT22;30950;53.086;21.576;2023-09-07T08:14:35;20.70;99.90
45207;DHT22;30950;53.086;21.576;2023-09-07T08:17:03;20.80;99.90
45207;DHT22;30950;53.086;21.576;2023-09-07T08:19:31;20.80;99.90
45207;DHT22;30950;53.086;21.576;2023-09-07T08:22:02;20.90;99.90
45207;DHT22;30950;53.086;21.576;2023-09-07T08:24:33;21.00;99.90
45207;DHT22;30950;53.086;21.576;2023-09-07T08:27:01;21.10;99.90
45207;DHT22;30950;53.086;21.576;2023-09-07T08:29:29;21.10;99.90
45207;DHT22;30950;53.086;21.576;2023-09-07T08:31:59;21.20;99.90
45207;DHT22;30950;53.086;21.576;2023-09-07T08:34:29;21.30;99.90
45207;DHT22;30950;53.086;21.576;2023-09-07T08:36:58;21.30;99.90
45207;DHT22;30950;53.086;21.576;2023-09-07T08:39:27;21.40;99.90
45207;DHT22;30950;53.086;21.576;2023-09-07T08:41:56;21.50;99.90
45207;DHT22;30950;53.086;21.576;2023-09-07T08:44:29;21.60;99.90
45207;DHT22;30950;53.086;21.576;2023-09-07T08:46:57;21.70;99.90
45207;DHT22;30950;53.086;21.576;2023-09-07T08:49:27;21.80;99.90
45207;DHT22;30950;53.086;21.576;2023-09-07T08:51:57;21.80;99.90
45207;DHT22;30950;53.086;21.576;2023-09-07T08:54:26;22.00;99.90
45207;DHT22;30950;53.086;21.576;2023-09-07T08:56:56;22.10;99.90
45207;DHT22;30950;53.086;21.576;2023-09-07T08:59:25;22.20;99.90
45207;DHT22;30950;53.086;21.576;2023-09-07T09:01:56;22.30;99.90
45207;DHT22;30950;53.086;21.576;2023-09-07T09:04:26;22.40;99.90
45207;DHT22;30950;53.086;21.576;2023-09-07T09:06:55;22.50;99.90
45207;DHT22;30950;53.086;21.576;2023-09-07T09:09:23;22.60;99.90
45207;DHT22;30950;53.086;21.576;2023-09-07T09:11:54;22.70;99.90
45207;DHT22;30950;53.086;21.576;2023-09-07T09:14:22;22.80;99.90
45207;DHT22;30950;53.086;21.576;2023-09-07T09:16:50;22.80;99.90
45207;DHT22;30950;53.086;21.576;2023-09-07T09:19:18;22.90;99.90
45207;DHT22;30950;53.086;21.576;2023-09-07T09:21:45;23.00;99.90
45207;DHT22;30950;53.086;21.576;2023-09-07T09:24:13;23.10;99.90
45207;DHT22;30950;53.086;21.576;2023-09-07T09:26:42;23.20;99.90
45207;DHT22;30950;53.086;21.576;2023-09-07T09:29:09;23.30;99.90
45207;DHT22;30950;53.086;21.576;2023-09-07T09:31:38;23.30;99.90
45207;DHT22;30950;53.086;21.576;2023-09-07T09:34:06;23.40;99.90
45207;DHT22;30950;53.086;21.576;2023-09-07T09:36:35;23.40;99.90
45207;DHT22;30950;53.086;21.576;2023-09-07T09:39:03;23.60;99.90
45207;DHT22;30950;53.086;21.576;2023-09-07T09:41:32;23.70;99.90
45207;DHT22;30950;53.086;21.576;2023-09-07T09:44:03;23.70;99.90
45207;DHT22;30950;53.086;21.576;2023-09-07T09:46:32;23.80;99.90
45207;DHT22;30950;53.086;21.576;2023-09-07T09:49:00;24.00;99.90
45207;DHT22;30950;53.086;21.576;2023-09-07T09:51:30;24.10;99.90
45207;DHT22;30950;53.086;21.576;2023-09-07T09:54:00;24.20;99.90
45207;DHT22;30950;53.086;21.576;2023-09-07T09:56:29;24.30;99.90
45207;DHT22;30950;53.086;21.576;2023-09-07T09:58:56;24.40;99.90
45207;DHT22;30950;53.086;21.576;2023-09-07T10:01:24;24.60;99.90
45207;DHT22;30950;53.086;21.576;2023-09-07T10:03:53;24.70;99.90
45207;DHT22;30950;53.086;21.576;2023-09-07T10:06:25;24.90;99.90
45207;DHT22;30950;53.086;21.576;2023-09-07T10:09:05;25.10;99.90
45207;DHT22;30950;53.086;21.576;2023-09-07T10:11:38;25.10;99.90
45207;DHT22;30950;53.086;21.576;2023-09-07T10:14:07;25.20;99.90
45207;DHT22;30950;53.086;21.576;2023-09-07T10:16:49;25.40;99.90
45207;DHT22;30950;53.086;21.576;2023-09-07T10:19:18;25.50;99.00
45207;DHT22;30950;53.086;21.576;2023-09-07T10:21:47;25.50;98.50
45207;DHT22;30950;53.086;21.576;2023-09-07T10:27:00;25.50;97.60
45207;DHT22;30950;53.086;21.576;2023-09-07T10:29:28;25.60;96.50
45207;DHT22;30950;53.086;21.576;2023-09-07T10:31:55;25.80;95.70
45207;DHT22;30950;53.086;21.576;2023-09-07T10:34:35;25.90;94.70
45207;DHT22;30950;53.086;21.576;2023-09-07T10:37:03;26.10;94.50
45207;DHT22;30950;53.086;21.576;2023-09-07T10:39:31;26.20;94.30
45207;DHT22;30950;53.086;21.576;2023-09-07T10:41:59;26.20;93.50
45207;DHT22;30950;53.086;21.576;2023-09-07T10:44:27;26.30;93.80
45207;DHT22;30950;53.086;21.576;2023-09-07T10:46:57;26.50;95.00
45207;DHT22;30950;53.086;21.576;2023-09-07T10:49:24;27.10;93.90
45207;DHT22;30950;53.086;21.576;2023-09-07T10:51:52;27.50;91.10
45207;DHT22;30950;53.086;21.576;2023-09-07T10:54:23;27.70;89.50
45207;DHT22;30950;53.086;21.576;2023-09-07T10:56:51;27.80;88.50
45207;DHT22;30950;53.086;21.576;2023-09-07T10:59:18;27.70;84.20
45207;DHT22;30950;53.086;21.576;2023-09-07T11:01:46;27.50;84.50
45207;DHT22;30950;53.086;21.576;2023-09-07T11:04:16;27.30;84.70
45207;DHT22;30950;53.086;21.576;2023-09-07T11:06:45;27.10;84.90
45207;DHT22;30950;53.086;21.576;2023-09-07T11:09:12;26.90;84.30
45207;DHT22;30950;53.086;21.576;2023-09-07T11:11:40;26.80;83.40
45207;DHT22;30950;53.086;21.576;2023-09-07T11:14:08;26.60;81.60
45207;DHT22;30950;53.086;21.576;2023-09-07T11:16:35;26.60;82.10
45207;DHT22;30950;53.086;21.576;2023-09-07T11:19:04;26.50;83.30
45207;DHT22;30950;53.086;21.576;2023-09-07T11:21:32;26.50;83.00
45207;DHT22;30950;53.086;21.576;2023-09-07T11:24:02;26.50;83.50
45207;DHT22;30950;53.086;21.576;2023-09-07T11:26:46;26.50;83.20
45207;DHT22;30950;53.086;21.576;2023-09-07T11:29:15;26.50;83.70
45207;DHT22;30950;53.086;21.576;2023-09-07T11:31:43;26.50;84.60
45207;DHT22;30950;53.086;21.576;2023-09-07T11:34:14;26.50;83.90
45207;DHT22;30950;53.086;21.576;2023-09-07T11:36:43;26.50;83.40
45207;DHT22;30950;53.086;21.576;2023-09-07T11:39:10;26.60;84.00
45207;DHT22;30950;53.086;21.576;2023-09-07T11:41:43;26.60;83.70
45207;DHT22;30950;53.086;21.576;2023-09-07T11:44:11;26.70;79.50
45207;DHT22;30950;53.086;21.576;2023-09-07T11:46:39;26.60;79.70
45207;DHT22;30950;53.086;21.576;2023-09-07T11:49:09;26.60;78.30
45207;DHT22;30950;53.086;21.576;2023-09-07T11:51:37;26.60;78.00
45207;DHT22;30950;53.086;21.576;2023-09-07T11:54:05;26.60;77.00
45207;DHT22;30950;53.086;21.576;2023-09-07T11:56:32;26.50;77.00
45207;DHT22;30950;53.086;21.576;2023-09-07T11:58:59;26.40;77.10
45207;DHT22;30950;53.086;21.576;2023-09-07T12:01:27;26.40;78.30
45207;DHT22;30950;53.086;21.576;2023-09-07T12:03:55;26.50;78.90
45207;DHT22;30950;53.086;21.576;2023-09-07T12:06:22;26.50;78.80
45207;DHT22;30950;53.086;21.576;2023-09-07T12:09:01;26.60;78.20
45207;DHT22;30950;53.086;21.576;2023-09-07T12:11:29;26.70;77.70
45207;DHT22;30950;53.086;21.576;2023-09-07T12:13:58;26.80;77.30
45207;DHT22;30950;53.086;21.576;2023-09-07T12:16:26;26.90;77.00
45207;DHT22;30950;53.086;21.576;2023-09-07T12:18:55;26.90;76.30
45207;DHT22;30950;53.086;21.576;2023-09-07T12:21:22;26.90;75.80
45207;DHT22;30950;53.086;21.576;2023-09-07T12:23:50;26.90;75.80
45207;DHT22;30950;53.086;21.576;2023-09-07T12:26:17;26.90;75.30
45207;DHT22;30950;53.086;21.576;2023-09-07T12:28:47;26.80;75.20
45207;DHT22;30950;53.086;21.576;2023-09-07T12:31:15;26.90;75.10
45207;DHT22;30950;53.086;21.576;2023-09-07T12:33:44;26.90;74.20
45207;DHT22;30950;53.086;21.576;2023-09-07T12:36:11;26.90;74.20
45207;DHT22;30950;53.086;21.576;2023-09-07T12:38:39;26.80;73.00
45207;DHT22;30950;53.086;21.576;2023-09-07T12:41:06;26.70;72.70
45207;DHT22;30950;53.086;21.576;2023-09-07T12:43:35;26.80;73.20
45207;DHT22;30950;53.086;21.576;2023-09-07T12:46:02;26.80;73.20
45207;DHT22;30950;53.086;21.576;2023-09-07T12:48:31;26.90;72.90
45207;DHT22;30950;53.086;21.576;2023-09-07T12:50:58;26.90;73.40
45207;DHT22;30950;53.086;21.576;2023-09-07T12:53:26;26.80;72.50
45207;DHT22;30950;53.086;21.576;2023-09-07T12:55:54;26.60;72.00
45207;DHT22;30950;53.086;21.576;2023-09-07T12:58:21;26.50;71.90
45207;DHT22;30950;53.086;21.576;2023-09-07T13:00:49;26.40;72.60
45207;DHT22;30950;53.086;21.576;2023-09-07T13:03:19;26.40;73.10
45207;DHT22;30950;53.086;21.576;2023-09-07T13:05:48;26.30;73.20
45207;DHT22;30950;53.086;21.576;2023-09-07T13:08:15;26.30;73.20
45207;DHT22;30950;53.086;21.576;2023-09-07T13:10:42;26.20;73.80
45207;DHT22;30950;53.086;21.576;2023-09-07T13:13:10;26.30;73.80
45207;DHT22;30950;53.086;21.576;2023-09-07T13:15:37;26.20;73.60
45207;DHT22;30950;53.086;21.576;2023-09-07T13:18:05;26.30;72.60
45207;DHT22;30950;53.086;21.576;2023-09-07T13:20:32;26.30;72.40
45207;DHT22;30950;53.086;21.576;2023-09-07T13:23:00;26.40;72.80
45207;DHT22;30950;53.086;21.576;2023-09-07T13:25:27;26.60;73.40
45207;DHT22;30950;53.086;21.576;2023-09-07T13:27:55;27.30;73.90
45207;DHT22;30950;53.086;21.576;2023-09-07T13:30:25;28.00;72.50
45207;DHT22;30950;53.086;21.576;2023-09-07T13:32:52;28.90;72.50
45207;DHT22;30950;53.086;21.576;2023-09-07T13:35:20;29.70;70.30
45207;DHT22;30950;53.086;21.576;2023-09-07T13:37:47;30.10;67.90
45207;DHT22;30950;53.086;21.576;2023-09-07T13:40:14;30.40;66.20
45207;DHT22;30950;53.086;21.576;2023-09-07T13:42:42;30.80;66.20
45207;DHT22;30950;53.086;21.576;2023-09-07T13:45:10;31.40;65.20
45207;DHT22;30950;53.086;21.576;2023-09-07T13:47:38;31.70;63.10
45207;DHT22;30950;53.086;21.576;2023-09-07T13:50:06;32.20;61.10
45207;DHT22;30950;53.086;21.576;2023-09-07T13:52:34;32.70;60.10
45207;DHT22;30950;53.086;21.576;2023-09-07T13:55:01;33.10;57.90
45207;DHT22;30950;53.086;21.576;2023-09-07T13:57:28;33.50;58.00
45207;DHT22;30950;53.086;21.576;2023-09-07T13:59:56;33.90;56.50
45207;DHT22;30950;53.086;21.576;2023-09-07T14:02:23;34.30;55.60
45207;DHT22;30950;53.086;21.576;2023-09-07T14:04:51;34.40;54.20
45207;DHT22;30950;53.086;21.576;2023-09-07T14:07:19;34.50;54.00
45207;DHT22;30950;53.086;21.576;2023-09-07T14:09:46;34.50;53.30
45207;DHT22;30950;53.086;21.576;2023-09-07T14:12:14;34.50;52.50
45207;DHT22;30950;53.086;21.576;2023-09-07T14:14:41;34.50;52.00
45207;DHT22;30950;53.086;21.576;2023-09-07T14:17:08;34.30;51.40
45207;DHT22;30950;53.086;21.576;2023-09-07T14:19:36;33.80;51.30
45207;DHT22;30950;53.086;21.576;2023-09-07T14:22:03;33.40;52.00
45207;DHT22;30950;53.086;21.576;2023-09-07T14:24:31;33.10;52.30
45207;DHT22;30950;53.086;21.576;2023-09-07T14:26:58;32.80;52.50
45207;DHT22;30950;53.086;21.576;2023-09-07T14:29:25;32.40;52.50
45207;DHT22;30950;53.086;21.576;2023-09-07T14:31:56;31.80;53.00
45207;DHT22;30950;53.086;21.576;2023-09-07T14:34:23;31.20;53.90
45207;DHT22;30950;53.086;21.576;2023-09-07T14:36:51;30.60;54.40
45207;DHT22;30950;53.086;21.576;2023-09-07T14:39:18;30.10;54.70
45207;DHT22;30950;53.086;21.576;2023-09-07T14:41:51;29.60;55.70
45207;DHT22;30950;53.086;21.576;2023-09-07T14:44:21;29.10;56.40
45207;DHT22;30950;53.086;21.576;2023-09-07T14:46:49;28.70;57.00
45207;DHT22;30950;53.086;21.576;2023-09-07T14:49:17;28.30;57.60
45207;DHT22;30950;53.086;21.576;2023-09-07T14:51:45;28.00;58.60
45207;DHT22;30950;53.086;21.576;2023-09-07T14:54:13;27.70;59.10
45207;DHT22;30950;53.086;21.576;2023-09-07T14:56:40;27.40;60.00
45207;DHT22;30950;53.086;21.576;2023-09-07T14:59:08;27.20;60.30
45207;DHT22;30950;53.086;21.576;2023-09-07T15:01:35;27.00;60.90
45207;DHT22;30950;53.086;21.576;2023-09-07T15:04:03;26.80;61.70
45207;DHT22;30950;53.086;21.576;2023-09-07T15:06:30;26.70;62.90
45207;DHT22;30950;53.086;21.576;2023-09-07T15:09:00;26.60;62.50
45207;DHT22;30950;53.086;21.576;2023-09-07T15:11:28;26.50;61.90
45207;DHT22;30950;53.086;21.576;2023-09-07T15:13:55;26.50;62.00
45207;DHT22;30950;53.086;21.576;2023-09-07T15:16:23;26.50;62.40
45207;DHT22;30950;53.086;21.576;2023-09-07T15:18:50;26.70;63.50
45207;DHT22;30950;53.086;21.576;2023-09-07T15:21:21;26.90;63.60
45207;DHT22;30950;53.086;21.576;2023-09-07T15:23:48;27.20;62.90
45207;DHT22;30950;53.086;21.576;2023-09-07T15:26:16;27.40;62.40